createdAt,value
2023-03-25T00:00:58.002Z,12.80
2023-03-25T00:03:27.448Z,12.40
2023-03-25T00:05:55.808Z,10.83
2023-03-25T00:08:25.076Z,11.50
2023-03-25T00:10:55.550Z,12.47
2023-03-25T00:13:24.020Z,13.13
2023-03-25T00:15:53.881Z,12.43
2023-03-25T00:18:22.786Z,13.23
2023-03-25T00:20:51.562Z,16.23
2023-03-25T00:23:20.864Z,13.70
2023-03-25T00:25:49.567Z,13.27
2023-03-25T00:28:19.456Z,15.90
2023-03-25T00:30:47.677Z,14.80
2023-03-25T00:33:18.158Z,16.37
2023-03-25T00:35:49.555Z,14.23
2023-03-25T00:38:18.258Z,14.40
2023-03-25T00:40:48.614Z,17.02
2023-03-25T00:43:18.132Z,16.57
2023-03-25T00:45:46.377Z,15.33
2023-03-25T00:48:14.456Z,15.23
2023-03-25T00:50:42.763Z,13.73
2023-03-25T00:53:10.881Z,15.63
2023-03-25T00:55:39.030Z,15.43
2023-03-25T00:58:07.162Z,15.50
2023-03-25T01:00:36.745Z,16.80
2023-03-25T01:03:05.219Z,14.53
2023-03-25T01:05:33.374Z,14.13
2023-03-25T01:08:02.164Z,17.60
2023-03-25T01:10:30.480Z,16.97
2023-03-25T01:12:58.626Z,15.23
2023-03-25T01:15:26.789Z,14.93
2023-03-25T01:17:56.334Z,16.30
2023-03-25T01:20:24.558Z,16.63
2023-03-25T01:22:52.714Z,14.83
2023-03-25T01:25:21.156Z,15.67
2023-03-25T01:27:49.317Z,18.70
2023-03-25T01:30:17.557Z,16.60
2023-03-25T01:32:46.178Z,18.97
2023-03-25T01:35:15.847Z,15.47
2023-03-25T01:37:44.717Z,21.40
2023-03-25T01:40:19.991Z,13.30
2023-03-25T01:42:48.362Z,16.07
2023-03-25T01:45:29.148Z,17.97
2023-03-25T01:48:03.579Z,17.57
2023-03-25T01:50:34.463Z,18.37
2023-03-25T01:53:04.827Z,16.73
2023-03-25T01:55:35.301Z,19.70
2023-03-25T01:58:10.638Z,20.53
2023-03-25T02:00:40.560Z,16.43
2023-03-25T02:03:10.307Z,17.07
2023-03-25T02:05:48.129Z,20.60
2023-03-25T02:08:16.976Z,15.03
2023-03-25T02:10:48.118Z,21.80
2023-03-25T02:13:17.129Z,18.80
2023-03-25T02:16:03.811Z,20.27
2023-03-25T02:18:43.808Z,17.67
2023-03-25T02:21:52.189Z,21.90
2023-03-25T02:24:54.316Z,18.73
2023-03-25T02:27:33.979Z,18.40
2023-03-25T02:30:31.133Z,17.93
2023-03-25T02:33:26.790Z,19.40
2023-03-25T02:36:19.113Z,22.93
2023-03-25T02:38:50.863Z,20.40
2023-03-25T02:41:25.811Z,19.63
2023-03-25T02:43:58.218Z,22.23
2023-03-25T02:46:28.944Z,19.93
2023-03-25T02:49:03.225Z,21.77
2023-03-25T02:51:35.863Z,24.67
2023-03-25T02:54:11.115Z,23.67
2023-03-25T02:56:41.191Z,19.83
2023-03-25T02:59:14.217Z,21.07
2023-03-25T03:01:43.066Z,21.63
2023-03-25T03:04:11.430Z,21.50
2023-03-25T03:06:42.591Z,22.63
2023-03-25T03:09:29.315Z,21.63
2023-03-25T03:12:08.758Z,21.87
2023-03-25T03:14:51.614Z,27.40
2023-03-25T03:17:26.574Z,27.47
2023-03-25T03:19:57.704Z,23.90
2023-03-25T03:22:40.666Z,23.50
2023-03-25T03:25:20.863Z,26.73
2023-03-25T03:27:54.045Z,24.73
2023-03-25T03:30:30.008Z,23.80
2023-03-25T03:33:09.766Z,27.57
2023-03-25T03:35:41.060Z,25.27
2023-03-25T03:38:12.485Z,24.80
2023-03-25T03:40:47.054Z,24.73
2023-03-25T03:43:18.779Z,25.30
2023-03-25T03:45:49.471Z,27.57
2023-03-25T03:48:23.710Z,28.53
2023-03-25T03:50:56.844Z,29.17
2023-03-25T03:53:28.947Z,30.50
2023-03-25T03:56:03.727Z,29.37
2023-03-25T03:58:36.246Z,29.23
2023-03-25T04:01:10.861Z,28.57
2023-03-25T04:03:45.149Z,27.73
2023-03-25T04:06:21.105Z,30.47
2023-03-25T04:08:59.088Z,29.63
2023-03-25T04:11:32.441Z,27.43
2023-03-25T04:14:03.737Z,29.20
2023-03-25T04:16:34.709Z,35.40
2023-03-25T04:19:05.447Z,33.17
2023-03-25T04:21:34.340Z,30.27
2023-03-25T04:24:02.521Z,34.03
2023-03-25T04:26:34.071Z,32.47
2023-03-25T04:29:02.998Z,35.40
2023-03-25T04:31:32.054Z,36.33
2023-03-25T04:34:02.392Z,36.07
2023-03-25T04:36:33.638Z,36.93
2023-03-25T04:39:01.795Z,32.13
2023-03-25T04:41:32.201Z,33.03
2023-03-25T04:44:00.540Z,30.97
2023-03-25T04:46:28.771Z,32.27
2023-03-25T04:48:57.197Z,33.33
2023-03-25T04:51:25.416Z,35.50
2023-03-25T04:53:53.580Z,32.93
2023-03-25T04:56:23.449Z,34.00
2023-03-25T04:58:53.461Z,31.67
2023-03-25T05:01:30.894Z,33.33
2023-03-25T05:04:05.664Z,29.33
2023-03-25T05:06:34.596Z,38.30
2023-03-25T05:09:04.749Z,34.63
2023-03-25T05:11:34.971Z,32.40
2023-03-25T05:14:04.930Z,34.47
2023-03-25T05:16:33.322Z,36.30
2023-03-25T05:19:03.549Z,33.83
2023-03-25T05:21:31.877Z,35.87
2023-03-25T05:24:01.718Z,35.27
2023-03-25T05:26:34.852Z,35.07
2023-03-25T05:29:05.332Z,36.17
2023-03-25T05:31:33.556Z,35.87
2023-03-25T05:34:02.132Z,35.63
2023-03-25T05:36:30.281Z,37.37
2023-03-25T05:38:59.340Z,35.30
2023-03-25T05:41:33.044Z,40.00
2023-03-25T05:44:01.832Z,37.03
2023-03-25T05:46:31.452Z,35.90
2023-03-25T05:49:00.929Z,36.67
2023-03-25T05:51:33.976Z,34.33
2023-03-25T05:54:02.782Z,43.10
2023-03-25T05:56:31.359Z,38.33
2023-03-25T05:58:59.541Z,36.53
2023-03-25T06:01:33.296Z,44.10
2023-03-25T06:04:04.079Z,40.27
2023-03-25T06:06:34.316Z,37.13
2023-03-25T06:09:03.021Z,39.23
2023-03-25T06:11:31.486Z,43.70
2023-03-25T06:14:00.849Z,40.27
2023-03-25T06:16:31.193Z,36.43
2023-03-25T06:19:00.355Z,37.57
2023-03-25T06:21:32.908Z,37.23
2023-03-25T06:24:02.030Z,37.03
2023-03-25T06:26:30.654Z,39.23
2023-03-25T06:28:59.045Z,35.40
2023-03-25T06:31:28.117Z,43.60
2023-03-25T06:33:57.110Z,36.70
2023-03-25T06:36:25.935Z,38.77
2023-03-25T06:38:55.708Z,39.93
2023-03-25T06:41:25.802Z,41.03
2023-03-25T06:43:54.121Z,39.67
2023-03-25T06:46:22.402Z,38.20
2023-03-25T06:48:50.579Z,38.60
2023-03-25T06:51:18.752Z,37.93
2023-03-25T06:53:46.920Z,39.03
2023-03-25T06:56:18.505Z,31.40
2023-03-25T06:58:46.917Z,36.40
2023-03-25T07:01:15.069Z,43.17
2023-03-25T07:03:43.216Z,44.40
2023-03-25T07:06:17.558Z,48.33
2023-03-25T07:08:46.126Z,36.97
2023-03-25T07:11:17.135Z,38.03
2023-03-25T07:13:45.319Z,37.60
2023-03-25T07:16:14.583Z,35.37
2023-03-25T07:18:43.020Z,36.53
2023-03-25T07:21:11.270Z,34.43
2023-03-25T07:23:39.550Z,35.57
2023-03-25T07:26:08.621Z,30.00
2023-03-25T07:28:39.259Z,35.30
2023-03-25T07:31:09.366Z,29.97
2023-03-25T07:33:38.749Z,28.77
2023-03-25T07:36:08.231Z,29.20
2023-03-25T07:38:36.944Z,32.07
2023-03-25T07:41:07.391Z,30.37
2023-03-25T07:43:36.994Z,23.43
2023-03-25T07:46:05.631Z,26.60
2023-03-25T07:48:34.026Z,20.83
2023-03-25T07:51:02.156Z,21.40
2023-03-25T07:53:30.328Z,22.17
2023-03-25T07:55:58.535Z,20.60
2023-03-25T07:58:26.682Z,23.80
2023-03-25T08:00:58.150Z,21.10
2023-03-25T08:03:27.975Z,19.97
2023-03-25T08:05:56.354Z,24.57
2023-03-25T08:08:24.518Z,24.50
2023-03-25T08:10:53.459Z,21.23
2023-03-25T08:13:21.584Z,24.13
2023-03-25T08:15:50.223Z,20.27
2023-03-25T08:18:20.115Z,18.67
2023-03-25T08:20:49.786Z,21.60
2023-03-25T08:23:19.628Z,19.40
2023-03-25T08:25:50.389Z,18.98
2023-03-25T08:28:23.230Z,20.27
2023-03-25T08:30:55.374Z,18.23
2023-03-25T08:33:27.747Z,17.40
2023-03-25T08:35:58.567Z,19.38
2023-03-25T08:38:34.236Z,15.02
2023-03-25T08:41:03.309Z,15.57
2023-03-25T08:43:31.473Z,16.23
2023-03-25T08:45:59.696Z,15.43
2023-03-25T08:48:29.359Z,17.10
2023-03-25T08:50:57.563Z,15.15
2023-03-25T08:53:26.173Z,13.82
2023-03-25T08:55:55.086Z,15.63
2023-03-25T08:58:24.279Z,15.55
2023-03-25T09:00:55.730Z,20.70
2023-03-25T09:03:25.178Z,19.13
2023-03-25T09:05:54.962Z,17.33
2023-03-25T09:08:23.220Z,16.27
2023-03-25T09:10:51.456Z,14.27
2023-03-25T09:13:19.618Z,17.77
2023-03-25T09:15:47.858Z,14.23
2023-03-25T09:18:16.085Z,12.18
2023-03-25T09:20:47.940Z,16.08
2023-03-25T09:23:17.875Z,13.38
2023-03-25T09:25:46.414Z,14.43
2023-03-25T09:28:14.676Z,17.38
2023-03-25T09:30:42.851Z,14.60
2023-03-25T09:33:12.192Z,18.85
2023-03-25T09:35:41.707Z,11.07
2023-03-25T09:38:10.071Z,12.18
2023-03-25T09:40:42.438Z,12.45
2023-03-25T09:43:28.357Z,8.50
2023-03-25T09:45:58.486Z,11.40
2023-03-25T09:48:32.152Z,11.13
2023-03-25T09:51:04.463Z,12.07
2023-03-25T09:53:39.966Z,13.32
2023-03-25T09:56:16.806Z,9.65
2023-03-25T09:58:47.850Z,11.07
2023-03-25T10:01:36.412Z,11.15
2023-03-25T10:04:35.942Z,13.07
2023-03-25T10:07:16.819Z,15.95
2023-03-25T10:09:49.617Z,15.13
2023-03-25T10:12:33.950Z,13.02
2023-03-25T10:15:14.891Z,12.30
2023-03-25T10:17:56.630Z,9.88
2023-03-25T10:20:37.347Z,14.57
2023-03-25T10:23:15.055Z,9.57
2023-03-25T10:25:48.910Z,10.82
2023-03-25T10:28:21.406Z,11.25
2023-03-25T10:30:52.709Z,11.93
2023-03-25T10:33:30.254Z,8.35
2023-03-25T10:36:00.985Z,10.13
2023-03-25T10:38:31.286Z,5.97
2023-03-25T10:41:12.737Z,7.32
2023-03-25T10:43:43.805Z,8.45
2023-03-25T10:46:22.104Z,6.60
2023-03-25T10:48:51.295Z,4.78
2023-03-25T10:51:24.459Z,7.90
2023-03-25T10:53:54.040Z,8.13
2023-03-25T10:56:26.620Z,8.07
2023-03-25T10:58:58.015Z,7.28
2023-03-25T11:01:37.116Z,5.60
2023-03-25T11:04:07.948Z,7.97
2023-03-25T11:06:40.383Z,5.43
2023-03-25T11:09:15.511Z,6.60
2023-03-25T11:11:44.414Z,6.78
2023-03-25T11:14:14.405Z,6.65
2023-03-25T11:16:45.253Z,5.47
2023-03-25T11:19:22.066Z,5.35
2023-03-25T11:21:54.988Z,5.18
2023-03-25T11:24:24.993Z,5.78
2023-03-25T11:26:55.019Z,7.78
2023-03-25T11:29:27.748Z,3.83
2023-03-25T11:32:07.012Z,3.25
2023-03-25T11:34:42.056Z,5.85
2023-03-25T11:37:18.804Z,7.53
2023-03-25T11:39:51.695Z,5.72
2023-03-25T11:42:32.412Z,7.20
2023-03-25T11:45:03.889Z,6.07
2023-03-25T11:47:34.679Z,9.07
2023-03-25T11:50:07.051Z,15.80
2023-03-25T11:52:41.782Z,6.55
2023-03-25T11:55:19.130Z,5.18
2023-03-25T11:57:51.432Z,6.68
2023-03-25T12:00:31.656Z,4.70
2023-03-25T12:03:05.339Z,6.85
2023-03-25T12:05:34.800Z,5.25
2023-03-25T12:08:11.214Z,8.18
2023-03-25T12:10:50.972Z,8.77
2023-03-25T12:13:29.440Z,4.97
2023-03-25T12:16:08.912Z,6.28
2023-03-25T12:18:49.397Z,7.25
2023-03-25T12:21:33.268Z,7.97
2023-03-25T12:24:26.024Z,8.30
2023-03-25T12:27:11.746Z,8.07
2023-03-25T12:29:48.647Z,6.95
2023-03-25T12:32:26.739Z,8.15
2023-03-25T12:35:11.390Z,6.97
2023-03-25T12:37:51.034Z,6.72
2023-03-25T12:40:31.073Z,7.85
2023-03-25T12:43:05.950Z,8.27
2023-03-25T12:45:51.204Z,4.93
2023-03-25T12:48:33.705Z,5.70
2023-03-25T12:51:13.554Z,8.60
2023-03-25T12:53:52.734Z,7.85
2023-03-25T12:56:34.917Z,8.27
2023-03-25T12:59:28.224Z,10.30
2023-03-25T13:02:07.525Z,10.65
2023-03-25T13:05:04.638Z,7.70
2023-03-25T13:07:40.941Z,7.53
2023-03-25T13:10:16.584Z,8.40
2023-03-25T13:12:50.564Z,8.32
2023-03-25T13:15:26.817Z,11.32
2023-03-25T13:18:00.022Z,16.88
2023-03-25T13:20:34.017Z,12.27
2023-03-25T13:23:05.476Z,13.70
2023-03-25T13:25:42.921Z,14.77
2023-03-25T13:28:14.785Z,11.80
2023-03-25T13:30:45.938Z,12.75
2023-03-25T13:33:18.236Z,11.52
2023-03-25T13:35:52.837Z,8.95
2023-03-25T13:38:27.262Z,10.40
2023-03-25T13:41:07.510Z,10.80
2023-03-25T13:43:42.994Z,11.90
2023-03-25T13:46:13.695Z,8.05
2023-03-25T13:48:49.501Z,7.78
2023-03-25T13:51:19.605Z,7.53
2023-03-25T13:53:51.989Z,8.60
2023-03-25T13:56:58.905Z,10.20
2023-03-25T13:59:54.075Z,7.07
2023-03-25T14:02:38.846Z,10.88
2023-03-25T14:05:46.603Z,10.23
2023-03-25T14:08:47.792Z,11.50
2023-03-25T14:11:24.468Z,5.45
2023-03-25T14:13:56.148Z,4.72
2023-03-25T14:16:29.003Z,4.78
2023-03-25T14:19:02.169Z,6.18
2023-03-25T14:21:35.173Z,3.60
2023-03-25T14:24:11.597Z,5.05
2023-03-25T14:26:49.861Z,4.85
2023-03-25T14:29:30.726Z,4.82
2023-03-25T14:32:05.923Z,5.75
2023-03-25T14:34:34.701Z,6.30
2023-03-25T14:37:27.515Z,4.88
2023-03-25T14:39:59.791Z,6.07
2023-03-25T14:42:43.074Z,6.35
2023-03-25T14:45:42.886Z,6.25
2023-03-25T14:48:26.570Z,3.75
2023-03-25T14:51:20.358Z,3.75
2023-03-25T14:53:56.634Z,4.13
2023-03-25T14:56:27.605Z,1.80
2023-03-25T14:59:04.771Z,1.63
2023-03-25T15:01:40.515Z,1.50
2023-03-25T15:04:25.910Z,3.57
2023-03-25T15:06:54.213Z,2.43
2023-03-25T15:09:30.984Z,1.87
2023-03-25T15:12:05.489Z,1.90
2023-03-25T15:14:37.973Z,3.10
2023-03-25T15:17:08.496Z,3.57
2023-03-25T15:20:15.802Z,3.17
2023-03-25T15:22:44.308Z,4.00
2023-03-25T15:25:22.100Z,5.10
2023-03-25T15:28:11.513Z,3.07
2023-03-25T15:31:02.464Z,3.30
2023-03-25T15:33:51.469Z,2.70
2023-03-25T15:36:41.091Z,2.37
2023-03-25T15:39:18.420Z,2.60
2023-03-25T15:42:22.096Z,3.97
2023-03-25T15:45:33.806Z,2.15
2023-03-25T15:48:46.159Z,2.20
2023-03-25T15:51:48.773Z,2.07
2023-03-25T15:54:36.807Z,3.60
2023-03-25T15:57:18.494Z,3.87
2023-03-25T16:00:00.259Z,7.17
2023-03-25T16:02:34.904Z,8.10
2023-03-25T16:05:09.329Z,10.00
2023-03-25T16:07:38.006Z,12.87
2023-03-25T16:10:14.754Z,10.60
2023-03-25T16:12:45.122Z,6.17
2023-03-25T16:15:18.923Z,5.70
2023-03-25T16:17:47.945Z,8.73
2023-03-25T16:20:22.726Z,10.47
2023-03-25T16:22:53.923Z,8.33
2023-03-25T16:25:27.623Z,9.00
2023-03-25T16:28:02.016Z,11.30
2023-03-25T16:30:36.685Z,7.43
2023-03-25T16:33:27.357Z,8.57
2023-03-25T16:36:00.378Z,5.53
2023-03-25T16:38:30.059Z,4.50
2023-03-25T16:41:02.675Z,8.30
2023-03-25T16:43:32.196Z,9.03
2023-03-25T16:46:02.962Z,8.40
2023-03-25T16:48:33.753Z,10.17
2023-03-25T16:51:09.403Z,7.80
2023-03-25T16:53:40.212Z,10.53
2023-03-25T16:56:23.656Z,14.33
2023-03-25T16:59:00.057Z,13.23
2023-03-25T17:01:29.410Z,10.20
2023-03-25T17:04:11.608Z,6.83
2023-03-25T17:06:43.093Z,6.70
2023-03-25T17:09:18.673Z,7.07
2023-03-25T17:11:48.505Z,6.97
2023-03-25T17:14:22.900Z,8.60
2023-03-25T17:16:53.576Z,8.33
2023-03-25T17:19:24.600Z,17.50
2023-03-25T17:22:19.633Z,15.80
2023-03-25T17:24:54.911Z,15.63
2023-03-25T17:27:28.924Z,11.30
2023-03-25T17:30:00.283Z,10.93
2023-03-25T17:32:28.758Z,19.93
2023-03-25T17:35:06.556Z,18.53
2023-03-25T17:37:36.442Z,8.57
2023-03-25T17:40:11.755Z,9.03
2023-03-25T17:42:41.421Z,8.80
2023-03-25T17:45:15.166Z,10.03
2023-03-25T17:47:52.888Z,12.53
2023-03-25T17:50:25.810Z,14.87
2023-03-25T17:52:55.454Z,12.37
2023-03-25T17:55:23.707Z,15.73
2023-03-25T17:57:52.095Z,12.47
2023-03-25T18:00:20.739Z,11.10
2023-03-25T18:02:49.294Z,12.83
2023-03-25T18:05:19.476Z,11.40
2023-03-25T18:07:50.420Z,12.30
2023-03-25T18:10:23.065Z,13.40
2023-03-25T18:12:53.378Z,15.83
2023-03-25T18:15:28.503Z,15.73
2023-03-25T18:17:57.635Z,14.97
2023-03-25T18:20:35.937Z,12.80
2023-03-25T18:23:04.753Z,14.50
2023-03-25T18:25:34.458Z,16.57
2023-03-25T18:28:02.830Z,15.03
2023-03-25T18:30:40.571Z,16.17
2023-03-25T18:33:11.190Z,15.27
2023-03-25T18:35:43.023Z,18.50
2023-03-25T18:38:20.130Z,16.57
2023-03-25T18:40:50.447Z,17.17
2023-03-25T18:43:21.335Z,15.70
2023-03-25T18:45:49.782Z,14.07
2023-03-25T18:48:22.254Z,14.63
2023-03-25T18:50:56.210Z,14.67
2023-03-25T18:53:27.403Z,16.07
2023-03-25T18:56:00.169Z,15.30
2023-03-25T18:58:30.935Z,12.80
2023-03-25T19:01:00.354Z,11.53
2023-03-25T19:03:31.743Z,13.63
2023-03-25T19:06:01.370Z,10.23
2023-03-25T19:08:29.776Z,12.63
2023-03-25T19:11:11.843Z,11.47
2023-03-25T19:13:47.770Z,11.53
2023-03-25T19:16:15.990Z,13.20
2023-03-25T19:18:44.771Z,13.10
2023-03-25T19:21:16.269Z,11.43
2023-03-25T19:23:44.441Z,14.23
2023-03-25T19:26:14.366Z,10.90
2023-03-25T19:28:42.917Z,7.63
2023-03-25T19:31:15.731Z,7.20
2023-03-25T19:33:44.404Z,11.67
2023-03-25T19:36:15.451Z,11.60
2023-03-25T19:38:44.304Z,10.20
2023-03-25T19:41:16.873Z,10.77
2023-03-25T19:43:45.307Z,10.93
2023-03-25T19:46:13.780Z,7.77
2023-03-25T19:48:42.027Z,7.90
2023-03-25T19:51:10.398Z,11.53
2023-03-25T19:53:38.588Z,7.43
2023-03-25T19:56:07.235Z,7.70
2023-03-25T19:58:36.808Z,7.53
2023-03-25T20:01:05.179Z,7.07
2023-03-25T20:03:35.603Z,8.43
2023-03-25T20:06:06.499Z,6.60
2023-03-25T20:08:37.211Z,6.67
2023-03-25T20:11:10.263Z,6.87
2023-03-25T20:13:41.650Z,11.73
2023-03-25T20:16:10.179Z,8.67
2023-03-25T20:18:39.036Z,9.40
2023-03-25T20:21:08.156Z,11.80
2023-03-25T20:23:36.627Z,12.43
2023-03-25T20:26:05.790Z,7.67
2023-03-25T20:28:34.237Z,9.07
2023-03-25T20:31:14.564Z,7.63
2023-03-25T20:33:42.744Z,7.47
2023-03-25T20:36:11.914Z,9.73
2023-03-25T20:38:50.522Z,9.23
2023-03-25T20:41:25.087Z,13.60
2023-03-25T20:43:53.343Z,15.10
2023-03-25T20:46:29.412Z,15.60
2023-03-25T20:49:02.380Z,9.67
2023-03-25T20:51:30.577Z,10.40
2023-03-25T20:53:58.816Z,9.90
2023-03-25T20:56:28.267Z,10.33
2023-03-25T20:58:56.417Z,11.87
2023-03-25T21:01:26.303Z,11.73
2023-03-25T21:03:54.506Z,14.93
2023-03-25T21:06:25.657Z,19.80
2023-03-25T21:08:59.456Z,22.33
2023-03-25T21:11:29.258Z,18.03
2023-03-25T21:13:58.303Z,13.83
2023-03-25T21:16:28.028Z,16.50
2023-03-25T21:18:58.165Z,13.13
2023-03-25T21:21:26.343Z,12.00
2023-03-25T21:23:54.796Z,14.03
2023-03-25T21:26:25.555Z,12.80
2023-03-25T21:28:54.221Z,10.43
2023-03-25T21:31:23.569Z,11.03
2023-03-25T21:33:54.620Z,12.40
2023-03-25T21:36:24.920Z,14.33
2023-03-25T21:38:56.396Z,10.47
2023-03-25T21:41:24.983Z,15.30
2023-03-25T21:43:53.978Z,14.57
2023-03-25T21:46:27.499Z,17.23
2023-03-25T21:49:03.946Z,20.03
2023-03-25T21:51:32.570Z,22.77
2023-03-25T21:54:01.195Z,19.90
2023-03-25T21:56:31.255Z,18.57
2023-03-25T21:59:01.727Z,19.43
2023-03-25T22:01:30.090Z,13.53
2023-03-25T22:04:00.987Z,10.77
2023-03-25T22:06:31.423Z,15.07
2023-03-25T22:09:03.771Z,12.20
2023-03-25T22:11:33.753Z,12.13
2023-03-25T22:14:05.215Z,12.30
2023-03-25T22:16:33.759Z,11.53
2023-03-25T22:19:03.738Z,14.77
2023-03-25T22:21:34.386Z,11.53
2023-03-25T22:24:04.408Z,14.83
2023-03-25T22:26:33.753Z,18.37
2023-03-25T22:29:04.186Z,15.47
2023-03-25T22:31:33.815Z,16.83
2023-03-25T22:34:04.443Z,16.77
2023-03-25T22:36:33.695Z,19.73
2023-03-25T22:39:02.865Z,14.83
2023-03-25T22:41:31.639Z,17.30
2023-03-25T22:44:00.111Z,18.20
2023-03-25T22:46:28.450Z,19.27
2023-03-25T22:48:56.670Z,19.47
2023-03-25T22:51:26.373Z,15.70
2023-03-25T22:53:54.577Z,17.63
2023-03-25T22:56:23.533Z,17.53
2023-03-25T22:58:53.964Z,15.60
2023-03-25T23:01:23.974Z,20.73
2023-03-25T23:03:52.702Z,14.10
2023-03-25T23:06:21.442Z,20.27
2023-03-25T23:08:51.880Z,16.67
2023-03-25T23:11:21.649Z,15.07
2023-03-25T23:13:52.535Z,17.40
2023-03-25T23:16:24.243Z,16.00
2023-03-25T23:18:53.097Z,15.00
2023-03-25T23:21:23.287Z,18.37
2023-03-25T23:23:54.725Z,21.27
2023-03-25T23:26:26.609Z,17.50
2023-03-25T23:29:00.382Z,18.20
2023-03-25T23:31:33.877Z,20.30
2023-03-25T23:34:04.725Z,17.77
2023-03-25T23:36:36.293Z,18.67
2023-03-25T23:39:07.856Z,21.07
2023-03-25T23:41:37.109Z,20.30
2023-03-25T23:44:06.032Z,17.03
2023-03-25T23:46:34.844Z,17.40
2023-03-25T23:49:03.324Z,17.03
2023-03-25T23:51:34.024Z,16.60
2023-03-25T23:54:02.326Z,22.30
2023-03-25T23:56:32.013Z,21.50
2023-03-25T23:59:00.922Z,19.53
